sensor_id;sensor_type;location;lat;lon;timestamp;P1;durP1;ratioP1;P2;durP2;ratioP2
11709;SDS011;5911;51.036;6.972;2023-12-04T00:01:17;15.03;;;10.90;;
11709;SDS011;5911;51.036;6.972;2023-12-04T00:03:44;14.57;;;10.73;;
11709;SDS011;5911;51.036;6.972;2023-12-04T00:06:12;14.57;;;10.73;;
11709;SDS011;5911;51.036;6.972;2023-12-04T00:08:40;16.67;;;11.67;;
11709;SDS011;5911;51.036;6.972;2023-12-04T00:11:07;15.53;;;10.83;;
11709;SDS011;5911;51.036;6.972;2023-12-04T00:13:35;14.93;;;10.57;;
11709;SDS011;5911;51.036;6.972;2023-12-04T00:16:04;14.37;;;10.73;;
11709;SDS011;5911;51.036;6.972;2023-12-04T00:18:33;14.03;;;10.83;;
11709;SDS011;5911;51.036;6.972;2023-12-04T00:21:01;13.93;;;10.27;;
11709;SDS011;5911;51.036;6.972;2023-12-04T00:23:28;17.53;;;11.40;;
11709;SDS011;5911;51.036;6.972;2023-12-04T00:25:56;13.33;;;9.80;;
11709;SDS011;5911;51.036;6.972;2023-12-04T00:28:23;14.23;;;10.93;;
11709;SDS011;5911;51.036;6.972;2023-12-04T00:30:51;15.07;;;10.33;;
11709;SDS011;5911;51.036;6.972;2023-12-04T00:33:18;15.40;;;11.83;;
11709;SDS011;5911;51.036;6.972;2023-12-04T00:35:48;14.13;;;10.30;;
11709;SDS011;5911;51.036;6.972;2023-12-04T00:38:16;14.10;;;10.13;;
11709;SDS011;5911;51.036;6.972;2023-12-04T00:40:45;14.53;;;10.23;;
11709;SDS011;5911;51.036;6.972;2023-12-04T00:43:12;14.90;;;10.70;;
11709;SDS011;5911;51.036;6.972;2023-12-04T00:45:42;14.40;;;10.43;;
11709;SDS011;5911;51.036;6.972;2023-12-04T00:48:09;14.30;;;10.07;;
11709;SDS011;5911;51.036;6.972;2023-12-04T00:50:37;13.23;;;10.53;;
11709;SDS011;5911;51.036;6.972;2023-12-04T00:53:06;14.03;;;10.53;;
11709;SDS011;5911;51.036;6.972;2023-12-04T00:55:34;13.00;;;9.87;;
11709;SDS011;5911;51.036;6.972;2023-12-04T00:58:01;13.80;;;10.23;;
11709;SDS011;5911;51.036;6.972;2023-12-04T01:00:31;12.27;;;9.57;;
11709;SDS011;5911;51.036;6.972;2023-12-04T01:02:59;12.53;;;9.57;;
11709;SDS011;5911;51.036;6.972;2023-12-04T01:05:27;11.73;;;9.23;;
11709;SDS011;5911;51.036;6.972;2023-12-04T01:07:55;12.50;;;9.27;;
11709;SDS011;5911;51.036;6.972;2023-12-04T01:10:24;12.97;;;9.90;;
11709;SDS011;5911;51.036;6.972;2023-12-04T01:12:51;12.70;;;9.77;;
11709;SDS011;5911;51.036;6.972;2023-12-04T01:15:22;13.47;;;9.93;;
11709;SDS011;5911;51.036;6.972;2023-12-04T01:17:50;13.27;;;9.57;;
11709;SDS011;5911;51.036;6.972;2023-12-04T01:20:18;12.63;;;9.50;;
11709;SDS011;5911;51.036;6.972;2023-12-04T01:22:45;14.37;;;10.20;;
11709;SDS011;5911;51.036;6.972;2023-12-04T01:25:13;12.77;;;9.60;;
11709;SDS011;5911;51.036;6.972;2023-12-04T01:27:42;12.20;;;8.90;;
11709;SDS011;5911;51.036;6.972;2023-12-04T01:30:10;13.43;;;9.77;;
11709;SDS011;5911;51.036;6.972;2023-12-04T01:32:40;13.83;;;9.60;;
11709;SDS011;5911;51.036;6.972;2023-12-04T01:35:07;11.43;;;9.40;;
11709;SDS011;5911;51.036;6.972;2023-12-04T01:37:36;13.60;;;9.77;;
11709;SDS011;5911;51.036;6.972;2023-12-04T01:40:04;15.90;;;10.73;;
11709;SDS011;5911;51.036;6.972;2023-12-04T01:42:33;12.33;;;9.00;;
11709;SDS011;5911;51.036;6.972;2023-12-04T01:45:02;12.50;;;9.83;;
11709;SDS011;5911;51.036;6.972;2023-12-04T01:47:30;14.80;;;9.20;;
11709;SDS011;5911;51.036;6.972;2023-12-04T01:49:58;13.37;;;9.07;;
11709;SDS011;5911;51.036;6.972;2023-12-04T01:52:25;13.70;;;9.50;;
11709;SDS011;5911;51.036;6.972;2023-12-04T01:54:53;11.10;;;8.90;;
11709;SDS011;5911;51.036;6.972;2023-12-04T01:57:21;12.97;;;9.40;;
11709;SDS011;5911;51.036;6.972;2023-12-04T01:59:48;13.43;;;10.23;;
11709;SDS011;5911;51.036;6.972;2023-12-04T02:02:17;13.23;;;9.97;;
11709;SDS011;5911;51.036;6.972;2023-12-04T02:04:45;12.37;;;10.07;;
11709;SDS011;5911;51.036;6.972;2023-12-04T02:07:12;12.33;;;9.47;;
11709;SDS011;5911;51.036;6.972;2023-12-04T02:09:40;12.13;;;8.77;;
11709;SDS011;5911;51.036;6.972;2023-12-04T02:12:07;12.80;;;9.33;;
11709;SDS011;5911;51.036;6.972;2023-12-04T02:14:35;14.03;;;9.57;;
11709;SDS011;5911;51.036;6.972;2023-12-04T02:17:03;12.57;;;9.63;;
11709;SDS011;5911;51.036;6.972;2023-12-04T02:19:33;11.53;;;9.23;;
11709;SDS011;5911;51.036;6.972;2023-12-04T02:22:01;13.30;;;8.90;;
11709;SDS011;5911;51.036;6.972;2023-12-04T02:24:30;12.50;;;9.30;;
11709;SDS011;5911;51.036;6.972;2023-12-04T02:27:07;11.53;;;8.80;;
11709;SDS011;5911;51.036;6.972;2023-12-04T02:29:37;13.10;;;9.73;;
11709;SDS011;5911;51.036;6.972;2023-12-04T02:32:06;13.40;;;9.27;;
11709;SDS011;5911;51.036;6.972;2023-12-04T02:34:35;11.40;;;9.20;;
11709;SDS011;5911;51.036;6.972;2023-12-04T02:37:03;11.97;;;9.00;;
11709;SDS011;5911;51.036;6.972;2023-12-04T02:39:33;12.47;;;9.20;;
11709;SDS011;5911;51.036;6.972;2023-12-04T02:42:00;13.03;;;9.33;;
11709;SDS011;5911;51.036;6.972;2023-12-04T02:44:28;12.03;;;9.23;;
11709;SDS011;5911;51.036;6.972;2023-12-04T02:46:56;11.47;;;9.43;;
11709;SDS011;5911;51.036;6.972;2023-12-04T02:49:24;11.07;;;8.93;;
11709;SDS011;5911;51.036;6.972;2023-12-04T02:51:51;11.03;;;8.60;;
11709;SDS011;5911;51.036;6.972;2023-12-04T02:54:19;12.43;;;9.33;;
11709;SDS011;5911;51.036;6.972;2023-12-04T02:56:48;12.37;;;8.97;;
11709;SDS011;5911;51.036;6.972;2023-12-04T02:59:15;13.33;;;9.33;;
11709;SDS011;5911;51.036;6.972;2023-12-04T03:01:43;12.77;;;8.87;;
11709;SDS011;5911;51.036;6.972;2023-12-04T03:04:10;12.33;;;9.30;;
11709;SDS011;5911;51.036;6.972;2023-12-04T03:06:38;11.00;;;8.57;;
11709;SDS011;5911;51.036;6.972;2023-12-04T03:09:05;12.37;;;9.63;;
11709;SDS011;5911;51.036;6.972;2023-12-04T03:11:33;13.80;;;9.80;;
11709;SDS011;5911;51.036;6.972;2023-12-04T03:14:02;13.73;;;8.93;;
11709;SDS011;5911;51.036;6.972;2023-12-04T03:16:30;12.43;;;9.03;;
11709;SDS011;5911;51.036;6.972;2023-12-04T03:18:57;13.10;;;9.67;;
11709;SDS011;5911;51.036;6.972;2023-12-04T03:21:25;12.13;;;9.33;;
11709;SDS011;5911;51.036;6.972;2023-12-04T03:23:53;13.13;;;9.63;;
11709;SDS011;5911;51.036;6.972;2023-12-04T03:26:21;13.67;;;9.07;;
11709;SDS011;5911;51.036;6.972;2023-12-04T03:28:49;13.87;;;9.50;;
11709;SDS011;5911;51.036;6.972;2023-12-04T03:31:18;12.80;;;8.50;;
11709;SDS011;5911;51.036;6.972;2023-12-04T03:33:45;10.33;;;8.50;;
11709;SDS011;5911;51.036;6.972;2023-12-04T03:36:13;11.90;;;8.77;;
11709;SDS011;5911;51.036;6.972;2023-12-04T03:38:40;11.70;;;8.73;;
11709;SDS011;5911;51.036;6.972;2023-12-04T03:41:13;12.60;;;9.40;;
11709;SDS011;5911;51.036;6.972;2023-12-04T03:43:40;12.07;;;8.57;;
11709;SDS011;5911;51.036;6.972;2023-12-04T03:46:08;11.77;;;9.33;;
11709;SDS011;5911;51.036;6.972;2023-12-04T03:48:37;11.40;;;8.17;;
11709;SDS011;5911;51.036;6.972;2023-12-04T03:51:05;12.20;;;8.40;;
11709;SDS011;5911;51.036;6.972;2023-12-04T03:53:33;11.97;;;8.27;;
11709;SDS011;5911;51.036;6.972;2023-12-04T03:56:00;12.23;;;8.70;;
11709;SDS011;5911;51.036;6.972;2023-12-04T03:58:28;10.40;;;8.17;;
11709;SDS011;5911;51.036;6.972;2023-12-04T04:00:55;11.27;;;8.33;;
11709;SDS011;5911;51.036;6.972;2023-12-04T04:03:23;11.63;;;8.30;;
11709;SDS011;5911;51.036;6.972;2023-12-04T04:05:52;10.63;;;8.27;;
11709;SDS011;5911;51.036;6.972;2023-12-04T04:08:20;11.27;;;8.40;;
11709;SDS011;5911;51.036;6.972;2023-12-04T04:10:47;12.60;;;8.50;;
11709;SDS011;5911;51.036;6.972;2023-12-04T04:13:15;12.47;;;8.37;;
11709;SDS011;5911;51.036;6.972;2023-12-04T04:15:42;11.87;;;8.60;;
11709;SDS011;5911;51.036;6.972;2023-12-04T04:18:10;10.37;;;8.17;;
11709;SDS011;5911;51.036;6.972;2023-12-04T04:20:38;11.50;;;8.30;;
11709;SDS011;5911;51.036;6.972;2023-12-04T04:23:07;11.50;;;7.93;;
11709;SDS011;5911;51.036;6.972;2023-12-04T04:25:34;12.27;;;8.47;;
11709;SDS011;5911;51.036;6.972;2023-12-04T04:28:02;11.13;;;8.23;;
11709;SDS011;5911;51.036;6.972;2023-12-04T04:30:30;10.10;;;8.13;;
11709;SDS011;5911;51.036;6.972;2023-12-04T04:32:58;14.13;;;8.97;;
11709;SDS011;5911;51.036;6.972;2023-12-04T04:35:25;11.23;;;8.20;;
11709;SDS011;5911;51.036;6.972;2023-12-04T04:37:53;11.70;;;8.90;;
11709;SDS011;5911;51.036;6.972;2023-12-04T04:40:22;11.57;;;8.27;;
11709;SDS011;5911;51.036;6.972;2023-12-04T04:42:49;11.23;;;8.90;;
11709;SDS011;5911;51.036;6.972;2023-12-04T04:45:17;11.83;;;8.70;;
11709;SDS011;5911;51.036;6.972;2023-12-04T04:47:45;10.50;;;8.47;;
11709;SDS011;5911;51.036;6.972;2023-12-04T04:50:12;10.97;;;8.30;;
11709;SDS011;5911;51.036;6.972;2023-12-04T04:52:40;11.43;;;8.63;;
11709;SDS011;5911;51.036;6.972;2023-12-04T04:55:08;14.57;;;9.03;;
11709;SDS011;5911;51.036;6.972;2023-12-04T04:57:36;13.07;;;9.50;;
11709;SDS011;5911;51.036;6.972;2023-12-04T05:00:04;14.23;;;9.87;;
11709;SDS011;5911;51.036;6.972;2023-12-04T05:02:32;13.60;;;9.53;;
11709;SDS011;5911;51.036;6.972;2023-12-04T05:05:02;13.30;;;9.57;;
11709;SDS011;5911;51.036;6.972;2023-12-04T05:07:30;12.87;;;9.17;;
11709;SDS011;5911;51.036;6.972;2023-12-04T05:09:57;14.20;;;9.73;;
11709;SDS011;5911;51.036;6.972;2023-12-04T05:12:25;14.63;;;10.10;;
11709;SDS011;5911;51.036;6.972;2023-12-04T05:14:54;13.83;;;9.57;;
11709;SDS011;5911;51.036;6.972;2023-12-04T05:17:21;14.53;;;9.83;;
11709;SDS011;5911;51.036;6.972;2023-12-04T05:19:49;14.10;;;9.90;;
11709;SDS011;5911;51.036;6.972;2023-12-04T05:22:18;14.00;;;9.93;;
11709;SDS011;5911;51.036;6.972;2023-12-04T05:24:45;12.23;;;9.40;;
11709;SDS011;5911;51.036;6.972;2023-12-04T05:27:13;12.10;;;9.23;;
11709;SDS011;5911;51.036;6.972;2023-12-04T05:29:40;11.20;;;9.27;;
11709;SDS011;5911;51.036;6.972;2023-12-04T05:32:09;12.43;;;9.43;;
11709;SDS011;5911;51.036;6.972;2023-12-04T05:34:37;14.10;;;9.90;;
11709;SDS011;5911;51.036;6.972;2023-12-04T05:37:04;13.17;;;9.47;;
11709;SDS011;5911;51.036;6.972;2023-12-04T05:39:32;13.30;;;10.17;;
11709;SDS011;5911;51.036;6.972;2023-12-04T05:41:59;12.83;;;9.97;;
11709;SDS011;5911;51.036;6.972;2023-12-04T05:44:27;15.67;;;12.10;;
11709;SDS011;5911;51.036;6.972;2023-12-04T05:46:55;12.80;;;10.30;;
11709;SDS011;5911;51.036;6.972;2023-12-04T05:49:24;15.77;;;11.23;;
11709;SDS011;5911;51.036;6.972;2023-12-04T05:51:52;13.90;;;10.83;;
11709;SDS011;5911;51.036;6.972;2023-12-04T05:54:19;15.30;;;11.20;;
11709;SDS011;5911;51.036;6.972;2023-12-04T05:56:47;11.73;;;10.17;;
11709;SDS011;5911;51.036;6.972;2023-12-04T05:59:14;14.67;;;11.03;;
11709;SDS011;5911;51.036;6.972;2023-12-04T06:01:42;15.53;;;10.50;;
11709;SDS011;5911;51.036;6.972;2023-12-04T06:04:09;15.13;;;10.80;;
11709;SDS011;5911;51.036;6.972;2023-12-04T06:06:38;14.40;;;10.80;;
11709;SDS011;5911;51.036;6.972;2023-12-04T06:09:06;14.27;;;11.33;;
11709;SDS011;5911;51.036;6.972;2023-12-04T06:11:33;13.87;;;10.90;;
11709;SDS011;5911;51.036;6.972;2023-12-04T06:14:01;15.63;;;11.03;;
11709;SDS011;5911;51.036;6.972;2023-12-04T06:16:28;15.67;;;11.33;;
11709;SDS011;5911;51.036;6.972;2023-12-04T06:18:56;14.70;;;11.07;;
11709;SDS011;5911;51.036;6.972;2023-12-04T06:21:24;13.90;;;10.93;;
11709;SDS011;5911;51.036;6.972;2023-12-04T06:23:53;13.77;;;10.23;;
11709;SDS011;5911;51.036;6.972;2023-12-04T06:26:22;14.73;;;10.17;;
11709;SDS011;5911;51.036;6.972;2023-12-04T06:28:50;15.27;;;10.57;;
11709;SDS011;5911;51.036;6.972;2023-12-04T06:31:17;14.90;;;10.90;;
11709;SDS011;5911;51.036;6.972;2023-12-04T06:33:45;13.30;;;10.47;;
11709;SDS011;5911;51.036;6.972;2023-12-04T06:36:13;14.10;;;10.90;;
11709;SDS011;5911;51.036;6.972;2023-12-04T06:38:41;14.43;;;10.60;;
11709;SDS011;5911;51.036;6.972;2023-12-04T06:41:12;15.57;;;11.30;;
11709;SDS011;5911;51.036;6.972;2023-12-04T06:43:39;14.43;;;10.83;;
11709;SDS011;5911;51.036;6.972;2023-12-04T06:46:07;13.27;;;10.10;;
11709;SDS011;5911;51.036;6.972;2023-12-04T06:48:35;13.53;;;10.30;;
11709;SDS011;5911;51.036;6.972;2023-12-04T06:51:03;15.90;;;11.63;;
11709;SDS011;5911;51.036;6.972;2023-12-04T06:53:31;14.43;;;10.77;;
11709;SDS011;5911;51.036;6.972;2023-12-04T06:55:58;16.43;;;11.70;;
11709;SDS011;5911;51.036;6.972;2023-12-04T06:58:27;13.37;;;9.90;;
11709;SDS011;5911;51.036;6.972;2023-12-04T07:00:55;15.47;;;10.73;;
11709;SDS011;5911;51.036;6.972;2023-12-04T07:03:22;13.43;;;10.07;;
11709;SDS011;5911;51.036;6.972;2023-12-04T07:05:50;12.90;;;10.43;;
11709;SDS011;5911;51.036;6.972;2023-12-04T07:08:17;13.87;;;10.83;;
11709;SDS011;5911;51.036;6.972;2023-12-04T07:10:44;13.10;;;10.10;;
11709;SDS011;5911;51.036;6.972;2023-12-04T07:13:12;12.53;;;9.53;;
11709;SDS011;5911;51.036;6.972;2023-12-04T07:15:41;12.27;;;8.83;;
11709;SDS011;5911;51.036;6.972;2023-12-04T07:18:08;13.43;;;10.47;;
11709;SDS011;5911;51.036;6.972;2023-12-04T07:20:36;11.13;;;9.70;;
11709;SDS011;5911;51.036;6.972;2023-12-04T07:23:03;14.37;;;10.40;;
11709;SDS011;5911;51.036;6.972;2023-12-04T07:25:31;14.07;;;10.40;;
11709;SDS011;5911;51.036;6.972;2023-12-04T07:27:58;15.33;;;10.00;;
11709;SDS011;5911;51.036;6.972;2023-12-04T07:30:26;15.67;;;10.80;;
11709;SDS011;5911;51.036;6.972;2023-12-04T07:32:55;15.73;;;10.57;;
11709;SDS011;5911;51.036;6.972;2023-12-04T07:35:22;12.93;;;9.87;;
11709;SDS011;5911;51.036;6.972;2023-12-04T07:37:50;11.67;;;9.17;;
11709;SDS011;5911;51.036;6.972;2023-12-04T07:40:17;13.17;;;9.00;;
11709;SDS011;5911;51.036;6.972;2023-12-04T07:42:45;17.17;;;9.93;;
11709;SDS011;5911;51.036;6.972;2023-12-04T07:45:12;18.60;;;10.47;;
11709;SDS011;5911;51.036;6.972;2023-12-04T07:47:42;14.87;;;9.23;;
11709;SDS011;5911;51.036;6.972;2023-12-04T07:50:11;15.23;;;10.07;;
11709;SDS011;5911;51.036;6.972;2023-12-04T07:52:38;14.53;;;10.13;;
11709;SDS011;5911;51.036;6.972;2023-12-04T07:55:06;17.23;;;9.43;;
11709;SDS011;5911;51.036;6.972;2023-12-04T07:57:34;14.37;;;8.57;;
11709;SDS011;5911;51.036;6.972;2023-12-04T08:00:01;20.53;;;9.90;;
11709;SDS011;5911;51.036;6.972;2023-12-04T08:02:29;17.63;;;9.37;;
11709;SDS011;5911;51.036;6.972;2023-12-04T08:04:57;10.97;;;8.00;;
11709;SDS011;5911;51.036;6.972;2023-12-04T08:07:26;13.07;;;8.23;;
11709;SDS011;5911;51.036;6.972;2023-12-04T08:09:53;11.47;;;7.67;;
11709;SDS011;5911;51.036;6.972;2023-12-04T08:12:21;11.77;;;7.67;;
11709;SDS011;5911;51.036;6.972;2023-12-04T08:14:48;15.07;;;9.37;;
11709;SDS011;5911;51.036;6.972;2023-12-04T08:17:16;14.47;;;8.43;;
11709;SDS011;5911;51.036;6.972;2023-12-04T08:19:43;14.07;;;8.90;;
11709;SDS011;5911;51.036;6.972;2023-12-04T08:22:14;11.83;;;8.07;;
11709;SDS011;5911;51.036;6.972;2023-12-04T08:24:43;12.40;;;8.23;;
11709;SDS011;5911;51.036;6.972;2023-12-04T08:27:10;12.30;;;7.80;;
11709;SDS011;5911;51.036;6.972;2023-12-04T08:29:39;10.60;;;7.93;;
11709;SDS011;5911;51.036;6.972;2023-12-04T08:32:06;10.50;;;7.53;;
11709;SDS011;5911;51.036;6.972;2023-12-04T08:34:34;11.27;;;8.40;;
11709;SDS011;5911;51.036;6.972;2023-12-04T08:37:03;11.10;;;8.10;;
11709;SDS011;5911;51.036;6.972;2023-12-04T08:39:30;10.60;;;8.33;;
11709;SDS011;5911;51.036;6.972;2023-12-04T08:41:59;9.70;;;7.60;;
11709;SDS011;5911;51.036;6.972;2023-12-04T08:44:33;9.93;;;7.33;;
11709;SDS011;5911;51.036;6.972;2023-12-04T08:47:01;10.47;;;7.70;;
11709;SDS011;5911;51.036;6.972;2023-12-04T08:49:28;8.70;;;7.20;;
11709;SDS011;5911;51.036;6.972;2023-12-04T08:52:08;9.97;;;7.80;;
11709;SDS011;5911;51.036;6.972;2023-12-04T08:54:38;10.13;;;8.17;;
11709;SDS011;5911;51.036;6.972;2023-12-04T08:57:07;10.50;;;7.77;;
11709;SDS011;5911;51.036;6.972;2023-12-04T08:59:35;9.80;;;7.83;;
11709;SDS011;5911;51.036;6.972;2023-12-04T09:02:02;9.87;;;7.73;;
11709;SDS011;5911;51.036;6.972;2023-12-04T09:04:30;10.03;;;7.20;;
11709;SDS011;5911;51.036;6.972;2023-12-04T09:06:59;9.17;;;7.03;;
11709;SDS011;5911;51.036;6.972;2023-12-04T09:09:47;10.07;;;7.00;;
11709;SDS011;5911;51.036;6.972;2023-12-04T09:12:16;10.43;;;8.13;;
11709;SDS011;5911;51.036;6.972;2023-12-04T09:14:44;10.87;;;7.77;;
11709;SDS011;5911;51.036;6.972;2023-12-04T09:17:12;10.37;;;7.57;;
11709;SDS011;5911;51.036;6.972;2023-12-04T09:19:40;8.40;;;6.83;;
11709;SDS011;5911;51.036;6.972;2023-12-04T09:22:08;8.33;;;7.00;;
11709;SDS011;5911;51.036;6.972;2023-12-04T09:24:44;8.97;;;6.87;;
11709;SDS011;5911;51.036;6.972;2023-12-04T09:27:12;10.30;;;7.77;;
11709;SDS011;5911;51.036;6.972;2023-12-04T09:29:41;9.97;;;7.07;;
11709;SDS011;5911;51.036;6.972;2023-12-04T09:32:09;10.10;;;7.40;;
11709;SDS011;5911;51.036;6.972;2023-12-04T09:34:36;10.00;;;6.73;;
11709;SDS011;5911;51.036;6.972;2023-12-04T09:37:04;10.33;;;7.77;;
11709;SDS011;5911;51.036;6.972;2023-12-04T09:39:37;8.83;;;7.03;;
11709;SDS011;5911;51.036;6.972;2023-12-04T09:42:05;9.83;;;7.03;;
11709;SDS011;5911;51.036;6.972;2023-12-04T09:44:33;9.43;;;6.60;;
11709;SDS011;5911;51.036;6.972;2023-12-04T09:47:04;10.73;;;7.47;;
11709;SDS011;5911;51.036;6.972;2023-12-04T09:49:32;8.87;;;7.10;;
11709;SDS011;5911;51.036;6.972;2023-12-04T09:52:00;9.40;;;6.77;;
11709;SDS011;5911;51.036;6.972;2023-12-04T09:54:28;9.80;;;6.90;;
11709;SDS011;5911;51.036;6.972;2023-12-04T09:56:57;10.93;;;7.67;;
11709;SDS011;5911;51.036;6.972;2023-12-04T09:59:25;10.17;;;6.90;;
11709;SDS011;5911;51.036;6.972;2023-12-04T10:01:55;10.10;;;7.70;;
11709;SDS011;5911;51.036;6.972;2023-12-04T10:04:24;10.83;;;7.43;;
11709;SDS011;5911;51.036;6.972;2023-12-04T10:06:52;11.83;;;7.77;;
11709;SDS011;5911;51.036;6.972;2023-12-04T10:09:19;10.27;;;7.50;;
11709;SDS011;5911;51.036;6.972;2023-12-04T10:11:49;8.83;;;6.67;;
11709;SDS011;5911;51.036;6.972;2023-12-04T10:14:18;9.90;;;7.47;;
11709;SDS011;5911;51.036;6.972;2023-12-04T10:16:45;10.63;;;6.73;;
11709;SDS011;5911;51.036;6.972;2023-12-04T10:19:17;9.30;;;7.17;;
11709;SDS011;5911;51.036;6.972;2023-12-04T10:21:46;11.83;;;7.50;;
11709;SDS011;5911;51.036;6.972;2023-12-04T10:24:26;11.63;;;8.20;;
11709;SDS011;5911;51.036;6.972;2023-12-04T10:26:54;9.00;;;7.27;;
11709;SDS011;5911;51.036;6.972;2023-12-04T10:29:22;9.23;;;6.87;;
11709;SDS011;5911;51.036;6.972;2023-12-04T10:31:50;12.47;;;7.90;;
11709;SDS011;5911;51.036;6.972;2023-12-04T10:34:21;10.97;;;8.10;;
11709;SDS011;5911;51.036;6.972;2023-12-04T10:36:53;11.57;;;8.43;;
11709;SDS011;5911;51.036;6.972;2023-12-04T10:39:21;11.23;;;8.30;;
11709;SDS011;5911;51.036;6.972;2023-12-04T10:41:58;11.90;;;7.87;;
11709;SDS011;5911;51.036;6.972;2023-12-04T10:44:26;9.90;;;7.47;;
11709;SDS011;5911;51.036;6.972;2023-12-04T10:46:54;10.47;;;7.83;;
11709;SDS011;5911;51.036;6.972;2023-12-04T10:49:25;12.43;;;8.10;;
11709;SDS011;5911;51.036;6.972;2023-12-04T10:51:56;13.80;;;8.40;;
11709;SDS011;5911;51.036;6.972;2023-12-04T10:54:26;12.33;;;7.93;;
11709;SDS011;5911;51.036;6.972;2023-12-04T10:56:56;10.23;;;7.40;;
11709;SDS011;5911;51.036;6.972;2023-12-04T10:59:27;10.93;;;7.70;;
11709;SDS011;5911;51.036;6.972;2023-12-04T11:01:55;12.23;;;7.80;;
11709;SDS011;5911;51.036;6.972;2023-12-04T11:04:23;10.93;;;8.10;;
11709;SDS011;5911;51.036;6.972;2023-12-04T11:06:52;14.33;;;9.20;;
11709;SDS011;5911;51.036;6.972;2023-12-04T11:09:22;12.43;;;8.27;;
11709;SDS011;5911;51.036;6.972;2023-12-04T11:11:55;11.30;;;7.97;;
11709;SDS011;5911;51.036;6.972;2023-12-04T11:14:24;11.63;;;8.17;;
11709;SDS011;5911;51.036;6.972;2023-12-04T11:16:53;12.30;;;8.50;;
11709;SDS011;5911;51.036;6.972;2023-12-04T11:19:24;15.47;;;9.53;;
11709;SDS011;5911;51.036;6.972;2023-12-04T11:21:56;11.77;;;8.87;;
11709;SDS011;5911;51.036;6.972;2023-12-04T11:24:26;10.90;;;8.00;;
11709;SDS011;5911;51.036;6.972;2023-12-04T11:26:54;14.53;;;8.80;;
11709;SDS011;5911;51.036;6.972;2023-12-04T11:29:22;12.07;;;8.60;;
11709;SDS011;5911;51.036;6.972;2023-12-04T11:31:50;13.87;;;8.97;;
11709;SDS011;5911;51.036;6.972;2023-12-04T11:34:17;11.37;;;8.73;;
11709;SDS011;5911;51.036;6.972;2023-12-04T11:36:45;14.37;;;9.23;;
11709;SDS011;5911;51.036;6.972;2023-12-04T11:39:13;14.67;;;9.17;;
11709;SDS011;5911;51.036;6.972;2023-12-04T11:41:48;15.50;;;9.70;;
11709;SDS011;5911;51.036;6.972;2023-12-04T11:44:17;13.27;;;9.17;;
11709;SDS011;5911;51.036;6.972;2023-12-04T11:47:02;11.80;;;8.50;;
11709;SDS011;5911;51.036;6.972;2023-12-04T11:49:34;12.30;;;9.23;;
11709;SDS011;5911;51.036;6.972;2023-12-04T11:52:05;12.70;;;8.93;;
11709;SDS011;5911;51.036;6.972;2023-12-04T11:57:20;17.13;;;10.50;;
11709;SDS011;5911;51.036;6.972;2023-12-04T11:59:49;14.43;;;9.53;;
11709;SDS011;5911;51.036;6.972;2023-12-04T12:02:16;11.50;;;8.43;;
11709;SDS011;5911;51.036;6.972;2023-12-04T12:04:46;11.23;;;8.00;;
11709;SDS011;5911;51.036;6.972;2023-12-04T12:07:17;13.70;;;9.20;;
11709;SDS011;5911;51.036;6.972;2023-12-04T12:09:45;14.20;;;9.13;;
11709;SDS011;5911;51.036;6.972;2023-12-04T12:12:16;11.00;;;8.90;;
11709;SDS011;5911;51.036;6.972;2023-12-04T12:14:45;12.30;;;9.10;;
11709;SDS011;5911;51.036;6.972;2023-12-04T12:17:13;11.13;;;8.70;;
11709;SDS011;5911;51.036;6.972;2023-12-04T12:19:40;12.23;;;8.40;;
11709;SDS011;5911;51.036;6.972;2023-12-04T12:22:08;13.87;;;9.27;;
11709;SDS011;5911;51.036;6.972;2023-12-04T12:24:35;12.43;;;9.20;;
11709;SDS011;5911;51.036;6.972;2023-12-04T12:27:04;10.87;;;9.17;;
11709;SDS011;5911;51.036;6.972;2023-12-04T12:29:33;11.83;;;8.83;;
11709;SDS011;5911;51.036;6.972;2023-12-04T12:32:02;9.03;;;8.10;;
11709;SDS011;5911;51.036;6.972;2023-12-04T12:34:31;11.33;;;8.43;;
11709;SDS011;5911;51.036;6.972;2023-12-04T12:37:02;11.00;;;8.27;;
11709;SDS011;5911;51.036;6.972;2023-12-04T12:39:31;12.70;;;9.00;;
11709;SDS011;5911;51.036;6.972;2023-12-04T12:41:59;11.50;;;8.90;;
11709;SDS011;5911;51.036;6.972;2023-12-04T12:44:27;12.87;;;9.20;;
11709;SDS011;5911;51.036;6.972;2023-12-04T12:46:55;13.37;;;9.20;;
11709;SDS011;5911;51.036;6.972;2023-12-04T12:49:24;14.13;;;9.60;;
11709;SDS011;5911;51.036;6.972;2023-12-04T12:52:02;11.37;;;9.00;;
11709;SDS011;5911;51.036;6.972;2023-12-04T12:54:30;11.90;;;8.27;;
11709;SDS011;5911;51.036;6.972;2023-12-04T12:56:59;11.33;;;8.83;;
11709;SDS011;5911;51.036;6.972;2023-12-04T12:59:26;9.83;;;7.87;;
11709;SDS011;5911;51.036;6.972;2023-12-04T13:01:54;9.93;;;8.03;;
11709;SDS011;5911;51.036;6.972;2023-12-04T13:04:25;11.10;;;7.87;;
11709;SDS011;5911;51.036;6.972;2023-12-04T13:06:52;10.97;;;8.17;;
11709;SDS011;5911;51.036;6.972;2023-12-04T13:09:20;10.93;;;8.07;;
11709;SDS011;5911;51.036;6.972;2023-12-04T13:11:48;11.00;;;8.00;;
11709;SDS011;5911;51.036;6.972;2023-12-04T13:14:15;12.43;;;8.33;;
11709;SDS011;5911;51.036;6.972;2023-12-04T13:16:43;11.40;;;8.33;;
11709;SDS011;5911;51.036;6.972;2023-12-04T13:19:10;9.53;;;7.87;;
11709;SDS011;5911;51.036;6.972;2023-12-04T13:21:39;10.40;;;7.70;;
11709;SDS011;5911;51.036;6.972;2023-12-04T13:24:07;12.93;;;7.47;;
11709;SDS011;5911;51.036;6.972;2023-12-04T13:26:35;10.53;;;7.73;;
11709;SDS011;5911;51.036;6.972;2023-12-04T13:29:03;9.53;;;7.40;;
11709;SDS011;5911;51.036;6.972;2023-12-04T13:31:30;9.73;;;7.60;;
11709;SDS011;5911;51.036;6.972;2023-12-04T13:33:59;8.93;;;7.07;;
11709;SDS011;5911;51.036;6.972;2023-12-04T13:36:26;10.10;;;7.40;;
11709;SDS011;5911;51.036;6.972;2023-12-04T13:38:55;9.63;;;7.63;;
11709;SDS011;5911;51.036;6.972;2023-12-04T13:41:23;9.83;;;7.50;;
11709;SDS011;5911;51.036;6.972;2023-12-04T13:44:10;9.27;;;7.20;;
11709;SDS011;5911;51.036;6.972;2023-12-04T13:46:40;11.13;;;7.03;;
11709;SDS011;5911;51.036;6.972;2023-12-04T13:49:08;10.67;;;7.87;;
11709;SDS011;5911;51.036;6.972;2023-12-04T13:51:36;8.77;;;6.80;;
11709;SDS011;5911;51.036;6.972;2023-12-04T13:54:07;8.50;;;6.87;;
11709;SDS011;5911;51.036;6.972;2023-12-04T13:56:49;9.80;;;6.77;;
11709;SDS011;5911;51.036;6.972;2023-12-04T13:59:20;8.40;;;6.83;;
11709;SDS011;5911;51.036;6.972;2023-12-04T14:01:48;9.37;;;6.80;;
11709;SDS011;5911;51.036;6.972;2023-12-04T14:04:17;10.43;;;7.30;;
11709;SDS011;5911;51.036;6.972;2023-12-04T14:06:45;10.90;;;7.60;;
11709;SDS011;5911;51.036;6.972;2023-12-04T14:09:15;8.70;;;6.50;;
11709;SDS011;5911;51.036;6.972;2023-12-04T14:11:43;9.13;;;6.80;;
11709;SDS011;5911;51.036;6.972;2023-12-04T14:14:11;9.57;;;6.90;;
11709;SDS011;5911;51.036;6.972;2023-12-04T14:16:40;8.50;;;6.20;;
11709;SDS011;5911;51.036;6.972;2023-12-04T14:19:08;9.37;;;6.50;;
11709;SDS011;5911;51.036;6.972;2023-12-04T14:21:36;8.80;;;6.47;;
11709;SDS011;5911;51.036;6.972;2023-12-04T14:24:04;8.60;;;6.90;;
11709;SDS011;5911;51.036;6.972;2023-12-04T14:26:33;8.53;;;6.70;;
11709;SDS011;5911;51.036;6.972;2023-12-04T14:29:00;9.40;;;6.07;;
11709;SDS011;5911;51.036;6.972;2023-12-04T14:31:29;7.93;;;6.30;;
11709;SDS011;5911;51.036;6.972;2023-12-04T14:33:57;7.53;;;6.00;;
11709;SDS011;5911;51.036;6.972;2023-12-04T14:36:24;6.77;;;6.07;;
11709;SDS011;5911;51.036;6.972;2023-12-04T14:38:53;7.77;;;5.93;;
11709;SDS011;5911;51.036;6.972;2023-12-04T14:41:23;7.40;;;5.97;;
11709;SDS011;5911;51.036;6.972;2023-12-04T14:43:52;7.27;;;5.53;;
11709;SDS011;5911;51.036;6.972;2023-12-04T14:46:20;9.20;;;6.13;;
11709;SDS011;5911;51.036;6.972;2023-12-04T14:48:47;11.07;;;6.70;;
11709;SDS011;5911;51.036;6.972;2023-12-04T14:51:16;9.07;;;5.97;;
11709;SDS011;5911;51.036;6.972;2023-12-04T14:53:43;8.00;;;6.10;;
11709;SDS011;5911;51.036;6.972;2023-12-04T14:56:16;7.20;;;5.90;;
11709;SDS011;5911;51.036;6.972;2023-12-04T14:58:53;6.90;;;5.40;;